Time;durP1;ratioP1;P1;durP2;ratioP2;P2;SDS_P1;SDS_P2;PMS_P1;PMS_P2;Temp;Humidity;BMP_temperature;BMP_pressure;BME280_temperature;BME280_humidity;BME280_pressure;Samples;Min_cycle;Max_cycle;Signal;HPM_P1;HPM_P2
2021/03/06 00:01:28;;;;;;;6.95;4.45;;;;;;;25.35;29.57;97765.66;5000014;28;20045;-31
2021/03/06 00:03:53;;;;;;;6.07;4.43;;;;;;;25.34;29.39;97761.28;4994258;28;20029;-34
2021/03/06 00:06:19;;;;;;;10.15;4.93;;;;;;;25.33;29.54;97770.06;4996077;28;20476;-29
2021/03/06 00:08:44;;;;;;;6.40;4.43;;;;;;;25.31;29.36;97773.63;4996355;28;20018;-33
2021/03/06 00:11:10;;;;;;;5.78;4.68;;;;;;;25.33;29.63;97760.44;4999247;28;20037;-33
2021/03/06 00:13:36;;;;;;;5.53;4.38;;;;;;;25.31;29.39;97767.50;5001024;28;20030;-32
2021/03/06 00:16:01;;;;;;;6.80;4.25;;;;;;;25.31;29.58;97773.63;4980696;28;20087;-33
2021/03/06 00:18:27;;;;;;;6.40;4.40;;;;;;;25.31;29.47;97772.75;5002582;28;20036;-37
2021/03/06 00:20:52;;;;;;;7.03;4.07;;;;;;;25.31;29.35;97763.13;4989932;28;20045;-34
2021/03/06 00:23:18;;;;;;;7.30;3.95;;;;;;;25.31;29.60;97768.38;4993253;28;20233;-33
2021/03/06 00:25:43;;;;;;;7.80;4.20;;;;;;;25.29;29.54;97770.19;4981908;28;20048;-31
2021/03/06 00:28:09;;;;;;;6.20;3.90;;;;;;;25.29;29.71;97774.59;4997362;28;20045;-32
2021/03/06 00:30:35;;;;;;;5.00;3.78;;;;;;;25.28;29.46;97772.88;5000480;28;20635;-33
2021/03/06 00:33:01;;;;;;;5.35;3.80;;;;;;;25.29;29.64;97775.41;4984367;28;20042;-32
2021/03/06 00:35:26;;;;;;;7.32;4.22;;;;;;;25.28;29.60;97768.47;4974570;28;20048;-34
2021/03/06 00:37:52;;;;;;;4.55;3.53;;;;;;;25.28;29.40;97771.09;4977344;28;20041;-34
2021/03/06 00:40:17;;;;;;;5.60;4.15;;;;;;;25.28;29.49;97778.97;4995648;28;20107;-33
2021/03/06 00:42:42;;;;;;;4.60;3.58;;;;;;;25.29;29.65;97774.59;5000350;28;20013;-32
2021/03/06 00:45:08;;;;;;;5.50;3.85;;;;;;;25.28;29.38;97771.09;4993481;28;20036;-34
2021/03/06 00:47:33;;;;;;;6.43;4.10;;;;;;;25.29;29.66;97769.34;4997231;28;20030;-33
2021/03/06 00:49:59;;;;;;;4.90;3.70;;;;;;;25.28;29.45;97763.22;4975563;28;20038;-36
2021/03/06 00:52:24;;;;;;;5.43;3.88;;;;;;;25.28;29.44;97768.47;4998492;28;20550;-32
2021/03/06 00:54:50;;;;;;;5.78;3.65;;;;;;;25.29;29.42;97769.34;5001759;28;20033;-36
2021/03/06 00:57:15;;;;;;;4.45;3.65;;;;;;;25.29;29.33;97770.19;4984878;28;20437;-32
2021/03/06 00:59:40;;;;;;;6.05;3.60;;;;;;;25.28;29.40;97771.09;5002676;28;20026;-34
2021/03/06 01:02:06;;;;;;;3.85;3.17;;;;;;;25.28;29.37;97768.47;4975776;28;20053;-33
2021/03/06 01:04:31;;;;;;;5.50;3.17;;;;;;;25.27;29.52;97772.00;4963783;28;20034;-33
2021/03/06 01:06:57;;;;;;;4.68;3.47;;;;;;;25.26;29.44;97765.06;4966160;28;20030;-34
2021/03/06 01:09:22;;;;;;;5.50;3.85;;;;;;;25.26;29.30;97769.44;4985009;28;20491;-35
2021/03/06 01:11:47;;;;;;;3.80;2.97;;;;;;;25.25;29.55;97758.06;4960503;28;20045;-32
2021/03/06 01:14:13;;;;;;;5.45;3.63;;;;;;;25.25;29.51;97768.56;4982952;28;20605;-34
2021/03/06 01:16:38;;;;;;;3.40;3.05;;;;;;;25.26;29.54;97777.31;4978878;28;20038;-33
2021/03/06 01:19:04;;;;;;;5.15;3.22;;;;;;;25.23;29.53;97759.91;4978395;28;20849;-33
2021/03/06 01:21:29;;;;;;;5.38;3.45;;;;;;;25.23;29.62;97761.66;4977307;28;20030;-34
2021/03/06 01:23:54;;;;;;;4.22;3.33;;;;;;;25.22;29.61;97757.34;4976323;28;20121;-34
2021/03/06 01:26:20;;;;;;;5.97;3.28;;;;;;;25.22;29.47;97757.34;4957353;28;20053;-32
2021/03/06 01:28:45;;;;;;;3.67;3.15;;;;;;;25.21;29.58;97751.25;4981251;28;20038;-32
2021/03/06 01:31:11;;;;;;;3.70;2.70;;;;;;;25.22;29.38;97758.22;4981308;28;20042;-32
2021/03/06 01:33:36;;;;;;;4.20;3.28;;;;;;;25.24;29.40;97751.13;4987001;28;20215;-33
2021/03/06 01:36:01;;;;;;;4.80;3.10;;;;;;;25.23;29.41;97749.41;4980137;28;20487;-34
2021/03/06 01:38:27;;;;;;;3.75;2.88;;;;;;;25.22;29.39;97745.09;4977979;28;20039;-33
2021/03/06 01:40:52;;;;;;;3.42;2.70;;;;;;;25.22;29.57;97742.47;4960540;28;20026;-33
2021/03/06 01:43:18;;;;;;;3.50;2.63;;;;;;;25.22;29.65;97747.72;4981618;28;20560;-34
2021/03/06 01:45:43;;;;;;;3.30;2.70;;;;;;;25.22;29.66;97752.09;4973534;28;20517;-31
2021/03/06 01:48:09;;;;;;;4.57;2.95;;;;;;;25.21;29.65;97746.00;4989068;28;20038;-30
2021/03/06 01:50:39;;;;;;;4.53;2.80;;;;;;;25.21;29.62;97747.75;4979537;28;20023;-31
2021/03/06 01:53:07;;;;;;;5.78;2.72;;;;;;;25.21;29.60;97756.50;4973989;28;20029;-32
2021/03/06 01:55:43;;;;;;;3.33;2.55;;;;;;;25.21;29.48;97753.88;4977102;28;20600;-33
2021/03/06 01:58:09;;;;;;;9.55;2.88;;;;;;;25.20;29.16;97753.94;4983163;28;20081;-34
2021/03/06 02:00:34;;;;;;;4.60;2.40;;;;;;;25.17;29.17;97744.41;4970081;28;20050;-35
2021/03/06 02:03:00;;;;;;;4.13;2.63;;;;;;;25.17;29.49;97745.25;4970708;28;20022;-32
2021/03/06 02:05:25;;;;;;;5.10;2.58;;;;;;;25.17;29.52;97739.16;4981136;28;20038;-34
2021/03/06 02:07:51;;;;;;;5.40;2.42;;;;;;;25.16;29.47;97740.03;4965620;28;20333;-32
2021/03/06 02:10:19;;;;;;;4.68;2.50;;;;;;;25.14;29.37;97734.00;4985092;28;20045;-33
2021/03/06 02:13:00;;;;;;;6.47;2.95;;;;;;;25.14;29.41;97732.22;4964633;28;20030;-32
2021/03/06 02:15:52;;;;;;;3.33;2.50;;;;;;;25.14;29.59;97732.22;4984985;28;20030;-32
2021/03/06 02:18:28;;;;;;;;;;;;;;;25.13;29.67;97732.31;4976934;28;20049;-33
2021/03/06 02:21:01;;;;;;;4.38;2.40;;;;;;;25.12;29.49;97735.81;4969255;28;19925;-34
2021/03/06 02:23:51;;;;;;;3.40;2.42;;;;;;;25.12;29.61;97720.06;4960708;28;20037;-34
2021/03/06 02:26:20;;;;;;;2.97;2.30;;;;;;;25.10;29.74;97721.91;4981450;28;20033;-34
2021/03/06 02:28:52;;;;;;;3.78;2.15;;;;;;;25.11;29.79;97728.88;4978940;28;20030;-31
2021/03/06 02:31:17;;;;;;;3.50;2.42;;;;;;;25.10;29.53;97727.16;4977465;28;20049;-35
2021/03/06 02:33:51;;;;;;;3.25;2.35;;;;;;;25.09;29.66;97725.47;4975629;28;20448;-30
2021/03/06 02:36:18;;;;;;;4.10;2.47;;;;;;;25.09;29.55;97726.28;4981224;28;20061;-32
2021/03/06 02:38:44;;;;;;;2.95;2.10;;;;;;;25.10;29.55;97719.28;4970571;28;20052;-33
2021/03/06 02:41:10;;;;;;;4.00;2.30;;;;;;;25.07;29.48;97715.00;4962057;28;20026;-32
2021/03/06 02:43:35;;;;;;;3.05;2.35;;;;;;;25.08;29.66;97718.47;4965959;28;20041;-34
2021/03/06 02:46:04;;;;;;;2.42;1.80;;;;;;;25.08;29.55;97713.22;4982606;28;20034;-32
2021/03/06 02:48:30;;;;;;;4.95;2.40;;;;;;;25.08;29.50;97713.22;4975648;28;20046;-36
2021/03/06 02:50:55;;;;;;;3.15;2.15;;;;;;;25.08;29.66;97718.47;4961599;28;20298;-35
2021/03/06 02:53:23;;;;;;;3.72;2.42;;;;;;;25.06;29.64;97710.69;4983696;28;20034;-34
2021/03/06 02:55:48;;;;;;;3.38;2.25;;;;;;;25.03;29.64;97713.41;4979028;28;20531;-33
2021/03/06 02:58:16;;;;;;;5.07;2.10;;;;;;;25.05;29.74;97714.19;4974442;28;20127;-33
2021/03/06 03:00:59;;;;;;;2.85;1.77;;;;;;;25.04;29.52;97718.59;4963273;28;20039;-33
2021/03/06 03:03:50;;;;;;;6.47;2.65;;;;;;;25.04;29.72;97713.34;4971142;28;20507;-34
2021/03/06 03:06:36;;;;;;;2.40;1.90;;;;;;;25.04;29.56;97718.59;4983509;28;20028;-34
2021/03/06 03:09:12;;;;;;;6.00;2.10;;;;;;;25.04;29.63;97717.75;4986779;28;20174;-32
2021/03/06 03:12:06;;;;;;;2.47;1.98;;;;;;;25.00;29.60;97713.50;4979963;28;20073;-33
2021/03/06 03:14:34;;;;;;;2.50;1.70;;;;;;;25.02;29.53;97712.53;4972713;28;20038;-32
2021/03/06 03:17:01;;;;;;;3.60;1.92;;;;;;;25.01;29.59;97716.06;4984391;28;20096;-33
2021/03/06 03:19:40;;;;;;;2.95;2.10;;;;;;;25.01;29.71;97710.84;4972722;28;20030;-34
2021/03/06 03:22:06;;;;;;;2.85;1.83;;;;;;;25.00;29.62;97714.38;4969063;28;20105;-32
2021/03/06 03:24:34;;;;;;;3.28;1.88;;;;;;;25.01;29.52;97712.59;4944018;28;20030;-35
2021/03/06 03:27:00;;;;;;;2.60;1.67;;;;;;;25.00;29.67;97710.88;4966127;28;20096;-33
2021/03/06 03:29:25;;;;;;;2.38;1.88;;;;;;;24.98;29.63;97703.06;4977138;28;20042;-32
2021/03/06 03:31:50;;;;;;;2.70;1.88;;;;;;;24.99;29.61;97711.81;4965810;28;20058;-34
2021/03/06 03:34:17;;;;;;;2.17;1.80;;;;;;;25.00;29.76;97710.88;4964097;28;20757;-33
2021/03/06 03:36:43;;;;;;;6.68;1.75;;;;;;;25.00;29.74;97713.50;4958946;28;20072;-32
2021/03/06 03:39:09;;;;;;;2.47;1.80;;;;;;;24.99;29.51;97711.81;4938206;28;20031;-33
2021/03/06 03:41:34;;;;;;;2.42;1.65;;;;;;;24.98;29.55;97708.31;4975077;28;20026;-34
2021/03/06 03:44:01;;;;;;;2.92;1.75;;;;;;;24.98;29.72;97708.31;4963943;28;20036;-32
2021/03/06 03:46:27;;;;;;;2.42;1.55;;;;;;;24.98;29.51;97712.72;4947912;28;20038;-34
2021/03/06 03:48:52;;;;;;;1.88;1.70;;;;;;;24.97;29.64;97711.84;4967708;28;20033;-35
2021/03/06 03:51:17;;;;;;;1.80;1.60;;;;;;;24.97;29.65;97716.25;4972072;28;23254;-31
2021/03/06 03:53:43;;;;;;;2.88;1.73;;;;;;;24.97;29.53;97719.72;4978847;28;20513;-33
2021/03/06 03:56:08;;;;;;;2.60;1.67;;;;;;;24.97;29.41;97716.25;4978492;28;20084;-36
2021/03/06 03:58:34;;;;;;;3.35;1.88;;;;;;;24.96;29.64;97728.50;4977065;28;20475;-32
2021/03/06 04:01:00;;;;;;;4.05;1.67;;;;;;;24.96;29.38;97725.88;4988957;28;20030;-32
2021/03/06 04:03:26;;;;;;;1.88;1.67;;;;;;;24.95;29.58;97734.66;5006915;28;20514;-32
2021/03/06 04:05:51;;;;;;;2.50;1.77;;;;;;;24.95;29.56;97724.19;4989798;28;20030;-34
2021/03/06 04:08:17;;;;;;;5.00;1.95;;;;;;;24.94;29.76;97727.69;4989272;28;20036;-33
2021/03/06 04:10:42;;;;;;;1.60;1.25;;;;;;;24.94;29.54;97732.94;5003376;28;20033;-29
2021/03/06 04:13:09;;;;;;;2.30;1.40;;;;;;;24.95;29.64;97731.19;4995885;28;20038;-30
2021/03/06 04:15:34;;;;;;;2.45;1.50;;;;;;;24.95;29.57;97736.41;4995199;28;20125;-34
2021/03/06 04:18:01;;;;;;;2.03;1.42;;;;;;;24.92;29.53;97735.63;4995857;28;20030;-32
2021/03/06 04:20:27;;;;;;;1.77;1.50;;;;;;;24.94;29.71;97737.34;4995691;28;20052;-33
2021/03/06 04:22:52;;;;;;;1.50;1.20;;;;;;;24.93;29.51;97733.84;4994944;28;20506;-33
2021/03/06 04:25:18;;;;;;;1.73;1.27;;;;;;;24.93;29.59;97736.47;5002012;28;20030;-32
2021/03/06 04:27:43;;;;;;;2.60;1.60;;;;;;;24.94;29.65;97743.41;4990746;28;20029;-38
2021/03/06 04:30:09;;;;;;;3.45;1.50;;;;;;;24.94;29.71;97753.91;5005441;28;20052;-33
2021/03/06 04:32:36;;;;;;;1.70;1.50;;;;;;;24.93;29.41;97749.56;5001108;28;20037;-33
2021/03/06 04:35:01;;;;;;;1.55;1.40;;;;;;;24.93;29.40;97749.56;4997200;28;20510;-35
2021/03/06 04:37:26;;;;;;;3.78;1.88;;;;;;;24.93;29.69;97749.56;4999655;28;20040;-34
2021/03/06 04:39:52;;;;;;;1.33;1.23;;;;;;;24.91;29.64;97744.38;4995833;28;20018;-32
2021/03/06 04:42:17;;;;;;;2.60;1.60;;;;;;;24.92;29.54;97753.13;5000674;28;20030;-34
2021/03/06 04:44:43;;;;;;;1.73;1.35;;;;;;;24.92;29.66;97750.50;4990140;28;20033;-33
2021/03/06 04:47:08;;;;;;;2.60;1.20;;;;;;;24.92;29.60;97747.88;4990850;28;20046;-31
2021/03/06 04:49:33;;;;;;;2.80;1.48;;;;;;;24.94;29.67;97750.44;5002260;28;20037;-33
2021/03/06 04:51:59;;;;;;;2.30;1.48;;;;;;;24.92;29.56;97751.34;4997831;28;20470;-34
2021/03/06 04:54:24;;;;;;;2.80;1.70;;;;;;;24.91;29.67;97744.38;4995581;28;20037;-35
2021/03/06 04:56:50;;;;;;;4.10;1.30;;;;;;;24.91;29.47;97752.25;4996409;28;20034;-33
2021/03/06 04:59:16;;;;;;;2.22;1.40;;;;;;;24.92;29.57;97750.50;5000084;28;20014;-33
2021/03/06 05:01:41;;;;;;;1.75;1.27;;;;;;;24.92;29.64;97750.50;4993686;28;20123;-33
2021/03/06 05:04:07;;;;;;;1.65;1.23;;;;;;;24.92;29.50;97748.75;5000339;28;20034;-32
2021/03/06 05:06:32;;;;;;;1.73;1.10;;;;;;;24.93;29.61;97746.94;4969014;28;20092;-33
2021/03/06 05:08:58;;;;;;;1.77;1.20;;;;;;;24.92;29.51;97742.63;5001119;28;20026;-30
2021/03/06 05:11:23;;;;;;;2.08;1.40;;;;;;;24.93;29.45;97746.94;5002337;28;20022;-32
2021/03/06 05:13:48;;;;;;;1.52;1.20;;;;;;;24.93;29.62;97746.94;4999524;28;20022;-33
2021/03/06 05:16:14;;;;;;;1.13;1.00;;;;;;;24.92;29.51;97742.63;5001632;28;20030;-33
2021/03/06 05:18:39;;;;;;;1.52;1.13;;;;;;;24.94;29.27;97750.44;5007118;28;20014;-33
2021/03/06 05:21:05;;;;;;;2.88;1.30;;;;;;;24.93;29.30;97757.44;5001324;28;20026;-32
2021/03/06 05:23:30;;;;;;;2.22;1.20;;;;;;;24.92;29.39;97746.13;4980145;28;20018;-33
2021/03/06 05:25:55;;;;;;;1.65;1.30;;;;;;;24.92;29.40;97753.13;5005864;28;20097;-32
2021/03/06 05:28:24;;;;;;;1.42;1.13;;;;;;;24.92;29.31;97750.50;5003480;28;20045;-34
2021/03/06 05:30:49;;;;;;;2.42;1.00;;;;;;;24.92;29.44;97746.13;5001895;28;20140;-34
2021/03/06 05:33:15;;;;;;;1.20;0.93;;;;;;;24.92;29.39;97746.13;5003472;28;20120;-33
2021/03/06 05:35:40;;;;;;;1.35;1.10;;;;;;;24.93;29.31;97752.19;5003922;28;20029;-35
2021/03/06 05:38:06;;;;;;;1.48;1.17;;;;;;;24.92;29.52;97755.72;4986002;28;20437;-33
2021/03/06 05:40:32;;;;;;;2.17;1.23;;;;;;;24.92;29.44;97756.59;4984082;28;20046;-35
2021/03/06 05:42:57;;;;;;;1.13;0.98;;;;;;;24.92;29.51;97761.84;4981884;28;20041;-32
2021/03/06 05:45:22;;;;;;;1.83;1.13;;;;;;;24.93;29.28;97757.44;4988873;28;20036;-37
2021/03/06 05:47:48;;;;;;;1.58;1.15;;;;;;;24.93;29.56;97757.44;4984328;28;20147;-32
2021/03/06 05:50:13;;;;;;;1.50;1.10;;;;;;;24.92;29.20;97755.72;5001752;28;20402;-33
2021/03/06 05:52:42;;;;;;;1.83;1.00;;;;;;;24.93;29.46;97762.69;5006932;28;20030;-33
2021/03/06 05:55:09;;;;;;;1.48;0.98;;;;;;;24.94;29.22;97759.16;4970982;28;20429;-33
2021/03/06 05:57:34;;;;;;;0.82;0.80;;;;;;;24.94;29.43;97753.91;4977823;28;20025;-33
2021/03/06 06:00:00;;;;;;;0.80;0.70;;;;;;;24.94;29.36;97750.44;4983727;28;20969;-35
2021/03/06 06:02:25;;;;;;;1.27;1.17;;;;;;;24.94;29.57;97746.03;4985996;28;20041;-35
2021/03/06 06:04:51;;;;;;;1.10;1.00;;;;;;;24.95;29.28;97754.78;4965514;28;20045;-31
2021/03/06 06:07:17;;;;;;;2.22;1.30;;;;;;;24.95;29.38;97745.16;4980105;28;20034;-33
2021/03/06 06:09:43;;;;;;;2.40;1.23;;;;;;;24.96;29.41;97757.34;4988053;28;20109;-33
2021/03/06 06:12:08;;;;;;;1.45;0.90;;;;;;;24.95;29.23;97750.41;4987893;28;20052;-35
2021/03/06 06:14:34;;;;;;;1.77;0.80;;;;;;;24.95;29.28;97745.16;4986036;28;20029;-35
2021/03/06 06:17:07;;;;;;;1.75;1.10;;;;;;;24.96;29.27;97741.63;4997626;28;20046;-32
2021/03/06 06:19:33;;;;;;;1.90;0.95;;;;;;;24.95;29.18;97745.16;4980027;28;20073;-34
2021/03/06 06:22:00;;;;;;;1.95;1.50;;;;;;;24.96;28.43;97757.34;4997475;28;20026;-34
2021/03/06 06:24:25;;;;;;;2.83;1.55;;;;;;;24.95;28.23;97747.78;5001121;28;20498;-34
2021/03/06 06:26:58;;;;;;;1.45;1.17;;;;;;;24.97;28.68;97753.81;5006479;28;20048;-36
2021/03/06 06:29:44;;;;;;;1.30;1.00;;;;;;;24.97;29.03;97747.72;4998964;28;20018;-32
2021/03/06 06:32:11;;;;;;;1.80;1.10;;;;;;;24.96;28.84;97759.09;4998556;28;20112;-33
2021/03/06 06:34:36;;;;;;;1.85;1.08;;;;;;;24.97;29.07;97759.06;4988496;28;20105;-33
2021/03/06 06:37:12;;;;;;;1.70;1.10;;;;;;;24.98;29.03;97757.31;4999095;28;20041;-34
2021/03/06 06:39:38;;;;;;;4.03;1.80;;;;;;;24.98;28.67;97768.63;4993310;28;20080;-33
2021/03/06 06:42:03;;;;;;;10.15;1.83;;;;;;;24.98;27.79;97766.00;4981259;28;20442;-33
2021/03/06 06:44:29;;;;;;;8.98;1.50;;;;;;;24.97;27.62;97766.91;5008238;28;20056;-33
2021/03/06 06:46:56;;;;;;;2.70;1.30;;;;;;;24.96;28.48;97766.97;5001766;28;20157;-35
2021/03/06 06:49:21;;;;;;;3.38;1.15;;;;;;;24.96;28.69;97773.06;4993746;28;20121;-35
2021/03/06 06:51:57;;;;;;;5.40;1.13;;;;;;;24.95;28.96;97771.38;4989313;28;20030;-37
2021/03/06 06:54:23;;;;;;;1.50;1.23;;;;;;;24.97;28.79;97768.69;4999757;28;20486;-34
2021/03/06 06:56:48;;;;;;;2.75;1.15;;;;;;;24.96;28.92;97773.06;5001379;28;20036;-30
2021/03/06 06:59:15;;;;;;;2.22;1.27;;;;;;;24.97;28.95;97774.78;4996151;28;20060;-33
2021/03/06 07:01:41;;;;;;;2.95;1.15;;;;;;;24.99;28.82;97774.72;4981186;28;20493;-34
2021/03/06 07:04:08;;;;;;;1.95;1.33;;;;;;;25.00;28.85;97773.81;5004601;28;20092;-34
2021/03/06 07:06:34;;;;;;;1.70;1.00;;;;;;;25.00;28.81;97782.56;4998842;28;20092;-32
2021/03/06 07:09:15;;;;;;;1.67;1.15;;;;;;;25.01;28.94;97778.16;5002535;28;20597;-33
2021/03/06 07:11:41;;;;;;;2.17;1.20;;;;;;;25.03;29.06;97786.84;5006529;28;20068;-33
2021/03/06 07:14:07;;;;;;;2.25;1.10;;;;;;;25.03;29.05;97785.09;5007747;28;20452;-32
2021/03/06 07:16:54;;;;;;;1.52;1.20;;;;;;;25.05;28.98;97787.63;4955237;28;20104;-31
2021/03/06 07:19:20;;;;;;;2.90;1.60;;;;;;;25.06;28.77;97786.75;4998436;28;20494;-31
2021/03/06 07:21:47;;;;;;;2.03;1.38;;;;;;;25.08;28.94;97797.16;4974676;28;20025;-32
2021/03/06 07:24:13;;;;;;;2.25;1.02;;;;;;;25.08;28.95;97789.28;5003674;28;20029;-34
2021/03/06 07:26:38;;;;;;;1.77;1.17;;;;;;;25.09;28.74;97793.66;4963696;28;20088;-31
2021/03/06 07:29:04;;;;;;;3.50;1.55;;;;;;;25.10;29.08;97801.47;5006178;28;20038;-35
2021/03/06 07:31:29;;;;;;;1.90;1.23;;;;;;;25.11;29.04;97802.31;4982374;28;20611;-33
2021/03/06 07:33:54;;;;;;;5.10;1.10;;;;;;;25.13;29.07;97811.00;4968422;28;20030;-33
2021/03/06 07:36:20;;;;;;;2.35;1.23;;;;;;;25.13;28.46;97811.00;4981008;28;20034;-31
2021/03/06 07:38:48;;;;;;;8.18;1.10;;;;;;;25.14;28.97;97807.44;4970492;28;20029;-35
2021/03/06 07:41:13;;;;;;;3.60;1.05;;;;;;;25.14;28.93;97812.69;4991487;28;20035;-31
2021/03/06 07:43:39;;;;;;;4.15;1.10;;;;;;;25.15;28.98;97814.41;4975782;28;20045;-34
2021/03/06 07:46:06;;;;;;;6.30;1.17;;;;;;;25.18;29.06;97814.31;4975039;28;20034;-33
2021/03/06 07:48:36;;;;;;;3.25;1.08;;;;;;;25.20;28.99;97820.34;4978093;28;20018;-34
2021/03/06 07:51:02;;;;;;;5.22;1.95;;;;;;;25.23;29.30;97822.88;4979462;28;20095;-34
2021/03/06 07:53:28;;;;;;;5.93;1.40;;;;;;;25.27;29.27;97828.84;5001479;28;20101;-32
2021/03/06 07:55:53;;;;;;;3.17;1.10;;;;;;;25.29;29.37;97822.66;4994270;28;20033;-31
2021/03/06 07:58:22;;;;;;;1.63;1.13;;;;;;;25.33;29.36;97822.56;4992129;28;20593;-32
2021/03/06 08:00:50;;;;;;;3.58;1.20;;;;;;;25.36;29.06;97823.28;4977398;28;20074;-33
2021/03/06 08:03:26;;;;;;;3.10;1.27;;;;;;;25.40;29.02;97829.31;4995076;28;20076;-35
2021/03/06 08:05:53;;;;;;;4.63;1.27;;;;;;;25.43;28.86;97834.44;4992159;28;20042;-32
2021/03/06 08:08:35;;;;;;;2.80;1.20;;;;;;;25.47;28.96;97832.56;4978885;28;20022;-30
2021/03/06 08:11:10;;;;;;;2.03;1.15;;;;;;;25.48;28.91;97827.28;4992648;28;20542;-31
2021/03/06 08:13:46;;;;;;;3.65;1.10;;;;;;;25.51;28.78;97827.16;4991370;28;20072;-31
2021/03/06 08:16:27;;;;;;;2.95;1.00;;;;;;;25.53;28.88;97830.59;4975545;28;20034;-33
2021/03/06 08:18:59;;;;;;;1.10;1.00;;;;;;;25.56;28.72;97837.53;4996744;28;20038;-32
2021/03/06 08:21:40;;;;;;;3.58;1.10;;;;;;;25.60;28.79;97835.63;4995684;28;20025;-31
2021/03/06 08:24:11;;;;;;;4.45;1.05;;;;;;;25.62;28.76;97839.09;4980603;28;20040;-31
2021/03/06 08:26:37;;;;;;;1.00;0.93;;;;;;;25.63;28.63;97832.91;4992410;28;20409;-34
2021/03/06 08:29:25;;;;;;;2.92;1.10;;;;;;;25.66;28.78;97851.19;4975268;28;20042;-32
2021/03/06 08:32:03;;;;;;;2.08;1.00;;;;;;;25.69;28.65;97830.06;4994309;28;20498;-33
2021/03/06 08:34:37;;;;;;;1.20;1.00;;;;;;;25.70;28.79;97843.13;4997373;28;20036;-30
2021/03/06 08:37:12;;;;;;;4.53;1.08;;;;;;;25.73;28.75;97844.78;4994634;28;20030;-33
2021/03/06 08:39:38;;;;;;;3.85;1.00;;;;;;;25.74;28.77;97836.00;4993827;28;20282;-33
2021/03/06 08:42:03;;;;;;;2.05;0.80;;;;;;;25.75;28.53;97832.47;4958313;28;20717;-32
2021/03/06 08:44:29;;;;;;;3.67;1.00;;;;;;;25.77;28.63;97832.38;4994893;28;20057;-33
2021/03/06 08:46:54;;;;;;;4.43;1.17;;;;;;;25.79;28.78;97834.06;4976922;28;20030;-32
2021/03/06 08:49:19;;;;;;;5.57;1.30;;;;;;;25.81;28.62;97834.00;4972925;28;20490;-34
2021/03/06 08:51:45;;;;;;;2.45;1.20;;;;;;;25.81;28.61;97840.13;4970503;28;20035;-32
2021/03/06 08:54:10;;;;;;;1.40;1.00;;;;;;;25.81;28.58;97826.97;4956982;28;20351;-34
2021/03/06 08:56:39;;;;;;;2.60;1.00;;;;;;;25.84;28.72;97833.88;4973787;28;20622;-31
2021/03/06 08:59:04;;;;;;;2.53;1.17;;;;;;;25.86;28.60;97836.47;4973910;28;20023;-32
2021/03/06 09:01:34;;;;;;;2.35;1.02;;;;;;;25.87;28.63;97836.41;4972902;28;20112;-32
2021/03/06 09:03:59;;;;;;;5.90;1.00;;;;;;;25.89;28.68;97837.19;4974038;28;20034;-32
2021/03/06 09:06:34;;;;;;;2.10;0.90;;;;;;;25.89;28.57;97831.94;4972514;28;21203;-32
2021/03/06 09:09:00;;;;;;;3.35;1.13;;;;;;;25.91;28.79;97831.88;4974637;28;20039;-33
2021/03/06 09:11:25;;;;;;;1.75;1.00;;;;;;;25.92;28.66;97830.97;4972553;28;20037;-33
2021/03/06 09:13:50;;;;;;;2.10;1.00;;;;;;;25.93;28.81;97824.84;4970416;28;20033;-30
2021/03/06 09:16:19;;;;;;;1.02;0.70;;;;;;;25.93;28.85;97825.66;4958141;28;20043;-33
2021/03/06 09:18:44;;;;;;;2.03;0.65;;;;;;;25.95;28.76;97831.75;4955066;28;20156;-33
2021/03/06 09:21:20;;;;;;;5.22;3.95;;;;;;;25.82;16.84;97826.06;4958323;28;20038;-34
2021/03/06 09:23:46;;;;;;;6.55;4.60;;;;;;;25.52;14.80;97826.22;4982466;28;20418;-34
2021/03/06 09:26:13;;;;;;;5.28;4.30;;;;;;;25.12;14.03;97830.22;4977541;28;20026;-34
2021/03/06 09:28:39;;;;;;;7.05;4.60;;;;;;;24.64;14.51;97827.41;4983130;28;20455;-33
2021/03/06 09:31:11;;;;;;;7.32;3.50;;;;;;;24.23;15.90;97820.78;4987826;28;20073;-34
2021/03/06 09:33:37;;;;;;;6.85;2.95;;;;;;;23.98;17.69;97825.84;4998119;28;20022;-31
2021/03/06 09:36:04;;;;;;;5.05;2.70;;;;;;;23.85;19.02;97833.19;4978291;28;20033;-33
2021/03/06 09:38:29;;;;;;;6.47;2.50;;;;;;;23.77;19.83;97825.56;4996341;28;20817;-33
2021/03/06 09:40:55;;;;;;;3.15;2.50;;;;;;;23.72;20.47;97825.69;4995734;28;20030;-30
2021/03/06 09:43:33;;;;;;;3.63;2.40;;;;;;;23.73;21.05;97826.56;4994432;28;20626;-33
2021/03/06 09:45:59;;;;;;;6.18;2.92;;;;;;;23.76;21.22;97826.47;4991049;28;20039;-33
2021/03/06 09:48:25;;;;;;;3.63;2.28;;;;;;;23.79;21.91;97825.53;4972677;28;20395;-34
2021/03/06 09:50:52;;;;;;;10.05;2.35;;;;;;;23.83;22.34;97821.94;4979120;28;20026;-34
2021/03/06 09:53:25;;;;;;;3.83;2.00;;;;;;;23.91;22.45;97827.78;4979945;28;20038;-32
2021/03/06 09:56:06;;;;;;;4.47;2.15;;;;;;;23.98;22.86;97826.72;4984204;28;20026;-34
2021/03/06 09:58:32;;;;;;;5.07;2.03;;;;;;;24.06;22.90;97823.03;4984679;28;20031;-33
2021/03/06 10:01:19;;;;;;;6.07;2.65;;;;;;;24.15;23.38;97825.41;4980465;28;20053;-34
2021/03/06 10:03:48;;;;;;;9.05;2.53;;;;;;;24.23;23.63;97818.16;4980638;28;20038;-35
2021/03/06 10:06:16;;;;;;;13.80;2.55;;;;;;;24.30;23.72;97825.81;4980629;28;20153;-35
2021/03/06 10:08:56;;;;;;;11.38;2.67;;;;;;;24.38;24.03;97826.44;4968972;28;20026;-30
2021/03/06 10:11:38;;;;;;;7.63;2.40;;;;;;;24.46;24.13;97816.59;4977048;28;20034;-33
2021/03/06 10:14:06;;;;;;;12.88;2.78;;;;;;;24.53;24.17;97814.63;4973884;28;20114;-32
2021/03/06 10:16:47;;;;;;;15.05;2.75;;;;;;;24.60;24.36;97816.13;4970294;28;20057;-32
2021/03/06 10:19:13;;;;;;;9.00;1.95;;;;;;;24.66;24.81;97804.59;4983376;28;20054;-31
2021/03/06 10:21:39;;;;;;;8.68;2.30;;;;;;;24.73;24.74;97805.25;4980327;28;20411;-31
2021/03/06 10:24:05;;;;;;;8.18;2.35;;;;;;;24.78;24.61;97806.84;4966166;28;20027;-34
2021/03/06 10:26:31;;;;;;;9.75;2.60;;;;;;;24.83;25.08;97809.31;4967580;28;20081;-31
2021/03/06 10:28:58;;;;;;;10.75;2.42;;;;;;;24.90;25.00;97802.16;4978283;28;20034;-34
2021/03/06 10:31:39;;;;;;;8.55;2.20;;;;;;;24.95;25.20;97805.47;4995017;28;20042;-33
2021/03/06 10:34:20;;;;;;;9.13;2.28;;;;;;;24.99;26.67;97808.81;4996178;28;20027;-35
2021/03/06 10:37:11;;;;;;;9.90;2.00;;;;;;;24.95;25.38;97808.09;4993617;28;20014;-40
2021/03/06 10:39:52;;;;;;;14.50;2.35;;;;;;;24.91;25.74;97802.06;4987891;28;20026;-38
2021/03/06 10:42:18;;;;;;;14.10;2.20;;;;;;;24.91;25.45;97812.56;4986248;28;20486;-38
2021/03/06 10:44:44;;;;;;;6.72;2.22;;;;;;;24.92;25.76;97805.56;4999453;28;20025;-38
2021/03/06 10:47:09;;;;;;;5.30;2.03;;;;;;;24.96;26.13;97815.03;5003225;28;20045;-38
2021/03/06 10:49:38;;;;;;;6.63;2.40;;;;;;;24.98;26.43;97807.97;4991270;28;20793;-42
2021/03/06 10:52:05;;;;;;;9.52;2.70;;;;;;;25.12;26.36;97814.50;4982321;28;20468;-38
2021/03/06 10:54:45;;;;;;;9.60;1.90;;;;;;;25.20;26.22;97809.84;4987995;28;20029;-39
2021/03/06 10:57:11;;;;;;;10.57;2.35;;;;;;;25.34;26.26;97806.75;5002796;28;20018;-38
2021/03/06 10:59:37;;;;;;;4.97;2.20;;;;;;;25.48;26.03;97805.41;4997114;28;20944;-37
2021/03/06 11:02:02;;;;;;;7.32;1.92;;;;;;;25.59;25.91;97803.28;4994044;28;20038;-38
2021/03/06 11:04:29;;;;;;;9.90;2.05;;;;;;;25.73;25.57;97808.03;4993087;28;20037;-38
2021/03/06 11:07:01;;;;;;;6.53;1.92;;;;;;;25.85;25.54;97796.22;4975700;28;20904;-38
2021/03/06 11:09:27;;;;;;;;;;;;;;;26.00;25.40;97804.44;4995196;28;20389;-38
2021/03/06 11:11:52;;;;;;;7.03;2.20;;;;;;;26.11;25.19;97804.88;4994713;28;19959;-40
2021/03/06 11:14:22;;;;;;;4.35;2.00;;;;;;;26.21;25.18;97794.88;4997616;28;20457;-40
2021/03/06 11:16:47;;;;;;;6.22;2.08;;;;;;;26.29;25.10;97792.84;4994301;28;20045;-38
2021/03/06 11:19:13;;;;;;;5.72;2.03;;;;;;;26.35;24.95;97792.59;4998093;28;20119;-39
2021/03/06 11:21:38;;;;;;;4.45;1.80;;;;;;;26.44;25.02;97796.63;5003267;28;20025;-37
2021/03/06 11:24:04;;;;;;;4.75;1.75;;;;;;;26.51;25.01;97786.72;5005564;28;20026;-40
2021/03/06 11:26:29;;;;;;;5.38;1.85;;;;;;;26.58;24.73;97798.69;4995563;28;20563;-38
2021/03/06 11:28:55;;;;;;;6.60;1.58;;;;;;;26.66;24.84;97795.75;4994767;28;20092;-37
2021/03/06 11:31:20;;;;;;;5.78;2.20;;;;;;;26.72;24.62;97797.28;4983077;28;20039;-35
2021/03/06 11:33:45;;;;;;;3.33;1.70;;;;;;;26.80;24.51;97786.44;4973834;28;20062;-37
2021/03/06 11:36:11;;;;;;;7.03;1.90;;;;;;;26.86;24.39;97786.19;4974906;28;20030;-40
2021/03/06 11:38:37;;;;;;;4.18;1.75;;;;;;;26.91;24.25;97788.59;4974107;28;20074;-35